Latest Weather Observations for Bathurst Airport

IDN60801

Issued at 10:32 pm EDT Saturday 25 March 2017 (issued every 30 minutes, with the page automatically refreshed every 10 minutes)

About weather observations | Map of weather stations | Latest weather observations for NSW | Other Formats
Station Details ID: 063291 Name: BATHURST AIRPORT AWS Lat: -33.41 Lon: 149.65 Height: 744.5 m
Data from the previous 72 hours. | See also: Recent months at Bathurst Airport
Date/Time
EDT
Temp
°C
App
Temp
°C
Dew
Point
°C
Rel
Hum
%
Delta-T
°C
Wind Press
QNH
hPa
Press
MSL
hPa
Rain since
9am
mm
Dir  Spd
km/h
Gust
km/h
Spd
kts
Gust
kts
25/10:30pm 20.7 23.1 18.8 89 1.2 SSE 4 6 2 3 1017.5 1014.7 1.2
25/10:00pm 21.1 24.0 19.0 88 1.4 SSW 2 7 1 4 1017.3 1014.6 1.2
25/09:30pm 21.3 24.6 19.0 87 1.5 CALM 0 0 0 0 1017.2 1014.5 1.2
25/09:00pm 21.2 24.4 18.9 87 1.5 CALM 0 0 0 0 1016.6 1013.8 1.2
25/08:30pm 21.4 24.7 19.1 87 1.5 CALM 0 0 0 0 1016.5 1013.7 1.2
25/08:00pm 21.0 22.9 18.9 88 1.4 N 7 7 4 4 1016.1 1013.3 1.2
25/07:30pm 21.4 22.9 18.8 85 1.7 N 9 11 5 6 1015.7 1012.9 1.2
25/07:00pm 22.1 23.3 18.3 79 2.5 NNW 9 13 5 7 1015.7 1012.9 1.2
25/06:30pm 22.9 23.8 18.4 76 2.9 NNW 11 13 6 7 1015.5 1012.7 1.2
25/06:00pm 23.6 23.5 17.8 70 3.7 NW 15 19 8 10 1015.3 1012.5 1.2
25/05:30pm 23.7 23.2 17.7 69 3.9 WNW 17 20 9 11 1015.2 1012.4 1.2
25/05:00pm 25.8 24.8 18.0 62 5.1 WNW 20 26 11 14 1015.1 1012.3 1.2
25/04:30pm 25.5 23.6 17.7 62 5.0 NW 24 35 13 19 1015.1 1012.3 1.2
25/04:00pm 25.5 24.2 18.2 64 4.8 NW 22 32 12 17 1015.3 1012.5 1.2
25/03:30pm 26.1 25.6 19.0 65 4.7 NNW 20 35 11 19 1015.3 1012.5 1.2
25/03:00pm 22.9 22.7 17.6 72 3.4 NNW 15 19 8 10 1015.7 1012.9 1.2
25/02:30pm 22.7 22.2 16.9 70 3.7 NNW 15 20 8 11 1016.1 1013.3 1.2
25/02:00pm 23.4 23.1 16.4 64 4.4 NW 13 22 7 12 1016.3 1013.5 1.2
25/01:30pm 24.5 23.0 16.2 60 5.2 NNW 19 26 10 14 1016.7 1013.9 1.2
25/01:00pm 24.4 23.3 16.4 61 5.0 NNW 17 24 9 13 1017.3 1014.6 1.2
25/12:30pm 22.6 21.5 15.2 63 4.6 NNW 15 20 8 11 1017.9 1015.1 1.2
25/12:00pm 21.4 20.9 14.8 66 4.0 NNW 11 15 6 8 1018.4 1015.7 1.2
25/11:30am 20.6 21.0 16.2 76 2.7 NNE 9 13 5 7 1018.9 1016.1 1.2
25/11:00am 18.3 18.4 14.4 78 2.3 E 7 11 4 6 1019.2 1016.4 1.2
25/10:30am 16.9 18.7 15.4 91 0.9 CALM 0 0 0 0 1019.5 1016.8 1.2
25/10:00am 15.5 16.1 15.2 98 0.2 SW 6 15 3 8 1019.5 1016.8 1.2
25/09:49am 15.6 16.8 15.0 96 0.4 N 2 11 1 6 1019.7 1017.0 1.2
25/09:30am 15.2 15.1 13.9 92 0.8 NNW 7 13 4 7 1019.2 1016.4 0.6
25/09:00am 16.0 15.5 13.8 87 1.3 N 9 13 5 7 1019.1 1016.3 0.0
25/08:30am 15.3 16.8 14.7 96 0.4 CALM 0 0 0 0 1019.2 1016.4 0.0
25/08:00am 13.8 15.0 13.8 100 0.0 CALM 0 0 0 0 1019.0 1016.2 0.0
25/07:30am 13.4 14.5 13.4 100 0.0 CALM 0 0 0 0 1018.9 1016.1 0.0
25/07:00am 13.2 14.1 13.0 99 0.1 CALM 0 0 0 0 1018.5 1015.8 0.0
25/06:30am 12.9 13.7 12.7 99 0.1 CALM 0 0 0 0 1018.4 1015.7 0.0
25/06:00am 13.0 13.9 13.0 100 0.0 CALM 0 0 0 0 1018.4 1015.7 0.0
25/05:30am 12.9 13.1 12.9 100 0.0 SW 4 6 2 3 1018.4 1015.7 0.0
25/05:00am 12.6 12.1 12.6 100 0.0 SW 7 7 4 4 1018.5 1015.8 0.0
25/04:30am 12.6 12.2 12.4 99 0.1 W 6 7 3 4 1018.4 1015.7 0.0
25/04:00am 13.0 12.5 11.9 93 0.6 SW 6 7 3 4 1018.5 1015.8 0.0
25/03:30am 13.6 13.1 12.2 91 0.8 SW 6 7 3 4 1018.7 1016.0 0.0
25/03:00am 14.0 14.0 12.4 90 0.9 WSW 4 6 2 3 1019.0 1016.2 0.0
25/02:30am 13.6 13.8 11.7 88 1.1 NNW 2 9 1 5 1019.2 1016.4 0.0
25/02:00am 14.2 15.0 12.4 89 1.0 CALM 0 0 0 0 1019.5 1016.8 0.0
25/01:30am 14.9 13.1 12.2 84 1.5 ENE 13 15 7 8 1019.6 1016.9 0.0
25/01:00am 15.0 12.6 12.7 86 1.3 ENE 17 20 9 11 1019.7 1017.0 0.0
25/12:30am 14.9 13.7 12.8 87 1.2 ENE 11 13 6 7 1020.5 1017.7 0.0
25/12:00am 15.1 13.5 12.8 86 1.3 ENE 13 17 7 9 1020.6 1017.8 0.0
 
Date/Time
EDT
Temp
°C
App
Temp
°C
Dew
Point
°C
Rel
Hum
%
Delta-T
°C
Wind Press
QNH
hPa
Press
MSL
hPa
Rain since
9am
mm
Dir  Spd
km/h
Gust
km/h
Spd
kts
Gust
kts
24/11:30pm 14.9 12.9 12.8 87 1.2 ENE 15 24 8 13 1020.5 1017.7 0.0
24/11:00pm 15.2 12.9 12.9 86 1.3 ENE 17 20 9 11 1020.7 1018.0 0.0
24/10:30pm 14.8 13.9 12.5 86 1.3 ENE 9 13 5 7 1021.0 1018.3 0.0
24/10:00pm 15.5 13.4 12.4 82 1.8 ENE 15 20 8 11 1020.8 1018.1 0.0
24/09:30pm 15.8 13.4 12.5 81 1.9 ENE 17 20 9 11 1020.6 1017.8 0.0
24/09:00pm 16.4 14.0 12.8 79 2.1 E 17 22 9 12 1020.6 1017.8 0.0
24/08:30pm 16.2 14.2 12.7 80 2.0 ENE 15 20 8 11 1020.0 1017.3 0.0
24/08:00pm 16.9 15.3 12.8 77 2.4 E 13 17 7 9 1019.8 1017.1 0.0
24/07:30pm 17.8 15.0 12.7 72 2.9 E 19 26 10 14 1019.3 1016.5 0.0
24/07:00pm 18.1 15.6 12.3 69 3.3 E 17 22 9 12 1019.4 1016.6 0.0
24/06:30pm 19.3 17.2 12.3 64 4.0 NE 15 20 8 11 1019.3 1016.5 0.0
24/06:00pm 19.9 16.9 12.4 62 4.3 ENE 20 26 11 14 1019.3 1016.5 0.0
24/05:30pm 20.4 17.4 12.1 59 4.8 ENE 19 30 10 16 1019.3 1016.5 0.0
24/05:00pm 20.4 17.5 12.9 62 4.4 ENE 20 26 11 14 1019.3 1016.5 0.0
24/04:30pm 21.6 17.8 13.5 60 4.8 ENE 26 32 14 17 1019.2 1016.4 0.0
24/04:00pm 21.0 18.0 12.4 58 5.0 ENE 20 28 11 15 1019.5 1016.8 0.0
24/03:30pm 20.6 16.9 12.6 60 4.7 E 24 33 13 18 1019.6 1016.9 0.0
24/03:00pm 21.2 18.3 12.3 57 5.2 ENE 19 28 10 15 1019.7 1017.0 0.0
24/02:30pm 21.8 19.2 13.9 61 4.7 ENE 20 30 11 16 1020.0 1017.3 0.0
24/02:00pm 20.8 18.6 12.0 57 5.1 ENE 15 24 8 13 1020.5 1017.7 0.0
24/01:30pm 21.6 18.4 13.0 58 5.1 ENE 22 32 12 17 1020.9 1018.2 0.0
24/01:00pm 20.8 17.5 12.8 60 4.7 E 22 30 12 16 1021.1 1018.4 0.0
24/12:30pm 20.8 17.6 13.0 61 4.6 ENE 22 28 12 15 1021.4 1018.7 0.0
24/12:00pm 20.1 16.2 12.1 60 4.6 ENE 24 32 13 17 1021.6 1018.9 0.0
24/11:30am 20.0 16.3 12.7 63 4.3 ENE 24 33 13 18 1021.8 1019.0 0.0
24/11:00am 19.3 15.8 13.5 69 3.4 ENE 24 33 13 18 1021.8 1019.0 0.0
24/10:30am 18.9 15.3 13.1 69 3.4 NE 24 33 13 18 1021.6 1018.9 0.0
24/10:00am 18.0 14.0 13.1 73 2.8 ENE 26 35 14 19 1021.4 1018.7 0.0
24/09:30am 18.3 16.3 13.8 75 2.7 E 17 26 9 14 1021.2 1018.5 0.0
24/09:00am 17.5 15.7 13.2 76 2.5 ESE 15 24 8 13 1021.2 1018.5 6.0
24/08:30am 16.3 15.8 12.8 80 2.0 ENE 7 13 4 7 1020.9 1018.2 6.0
24/08:00am 16.2 14.6 12.9 81 1.9 E 13 17 7 9 1020.9 1018.2 6.0
24/07:30am 15.5 14.2 12.6 83 1.7 ESE 11 19 6 10 1020.5 1017.7 6.0
24/07:00am 15.6 14.2 13.3 86 1.3 ESE 13 19 7 10 1020.4 1017.6 6.0
24/06:30am 15.7 13.5 13.4 86 1.3 SE 17 24 9 13 1020.2 1017.5 6.0
24/06:00am 15.7 15.9 14.1 90 0.9 SSE 6 13 3 7 1020.0 1017.3 6.0
24/05:30am 15.1 16.4 14.1 94 0.6 CALM 0 4 0 2 1019.6 1016.9 6.0
24/05:00am 15.3 14.6 13.3 88 1.2 ESE 9 11 5 6 1019.4 1016.6 6.0
24/04:30am 15.2 14.1 13.1 87 1.2 ESE 11 19 6 10 1019.5 1016.8 6.0
24/04:00am 15.3 14.4 13.8 91 0.9 ESE 11 17 6 9 1019.6 1016.9 6.0
24/03:30am 15.8 14.4 13.3 85 1.4 SE 13 19 7 10 1019.6 1016.9 6.0
24/03:23am 16.1 15.5 14.5 90 0.9 ESE 11 15 6 8 1019.8 1017.1 6.0
24/03:00am 16.1 16.3 14.8 92 0.8 NE 7 13 4 7 1019.7 1017.0 6.0
24/02:59am 16.0 16.3 15.0 94 0.6 NE 7 13 4 7 1019.7 1017.0 6.0
24/02:30am 16.1 14.2 14.3 89 1.1 SE 17 22 9 12 1019.7 1017.0 6.0
24/02:00am 16.1 14.9 15.1 94 0.6 SE 15 20 8 11 1019.3 1016.5 6.0
24/01:30am 16.2 15.4 16.0 99 0.1 SE 15 20 8 11 1019.3 1016.5 6.0
24/01:00am 16.1 16.0 16.1 100 0.0 SSE 11 17 6 9 1019.8 1017.1 6.0
24/12:30am 16.2 16.9 16.2 100 0.0 WSW 7 11 4 6 1019.7 1017.0 5.2
24/12:00am 16.3 16.7 16.3 100 0.0 S 9 13 5 7 1019.9 1017.2 4.6
 
Date/Time
EDT
Temp
°C
App
Temp
°C
Dew
Point
°C
Rel
Hum
%
Delta-T
°C
Wind Press
QNH
hPa
Press
MSL
hPa
Rain since
9am
mm
Dir  Spd
km/h
Gust
km/h
Spd
kts
Gust
kts
23/11:30pm 16.4 16.5 16.4 100 0.0 E 11 15 6 8 1019.9 1017.2 4.4
23/11:24pm 16.4 16.1 16.4 100 0.0 E 13 15 7 8 1019.9 1017.2 4.4
23/11:00pm 16.7 17.4 16.2 97 0.3 N 7 11 4 6 1020.9 1018.2 2.4
23/10:56pm 16.8 17.2 16.2 96 0.4 NNE 9 13 5 7 1020.9 1018.2 2.0
23/10:30pm 17.5 18.3 15.8 90 1.0 SE 6 7 3 4 1020.2 1017.5 1.0
23/10:00pm 17.4 15.6 15.6 89 1.1 ENE 19 28 10 15 1019.7 1017.0 1.0
23/09:30pm 17.3 16.5 16.0 92 0.8 ENE 15 22 8 12 1020.0 1017.3 1.0
23/09:00pm 17.3 16.7 15.6 90 1.0 ENE 13 17 7 9 1019.2 1016.4 1.0
23/08:30pm 17.5 15.9 16.0 91 0.9 ENE 19 24 10 13 1019.2 1016.4 1.0
23/08:00pm 17.8 17.1 16.5 92 0.8 ENE 15 20 8 11 1019.2 1016.4 1.0
23/07:30pm 17.6 17.4 16.6 94 0.6 E 13 17 7 9 1018.9 1016.1 1.0
23/07:00pm 17.7 15.4 16.6 93 0.7 NE 24 30 13 16 1017.7 1014.9 1.0
23/06:30pm 18.6 17.4 16.2 86 1.5 ENE 17 26 9 14 1018.5 1015.8 0.8
23/06:00pm 19.1 18.4 16.3 84 1.7 ENE 15 19 8 10 1018.3 1015.6 0.8
23/05:30pm 19.5 19.2 16.5 83 1.9 ENE 13 17 7 9 1018.5 1015.8 0.8
23/05:00pm 19.9 22.5 17.5 86 1.5 CALM 0 11 0 6 1018.5 1015.8 0.8
23/04:30pm 19.5 21.0 17.6 89 1.2 NNE 6 11 3 6 1018.6 1015.9 0.8
23/04:00pm 19.6 21.1 18.1 91 1.0 ENE 7 11 4 6 1018.7 1016.0 0.8
23/03:30pm 19.0 19.5 18.3 96 0.4 NE 13 15 7 8 1018.6 1015.9 0.8
23/03:00pm 19.3 20.2 16.5 84 1.7 NNE 7 9 4 5 1019.2 1016.4 0.4
23/02:46pm 20.0 20.4 16.2 79 2.4 ENE 9 11 5 6 1019.1 1016.3 0.0
23/02:30pm 20.1 20.5 16.3 79 2.4 ENE 9 13 5 7 1019.2 1016.4 0.0
23/02:21pm 20.0 20.3 16.0 78 2.5 ENE 9 13 5 7 1019.2 1016.4 0.0
23/02:00pm 20.3 20.0 16.5 79 2.4 NE 13 15 7 8 1019.3 1016.5 0.0
23/01:30pm 20.0 21.3 16.2 79 2.4 NNE 4 7 2 4 1019.8 1017.1 0.0
23/01:00pm 20.1 21.3 15.9 77 2.6 NNE 4 9 2 5 1020.1 1017.4 0.0
23/12:31pm 20.0 21.2 16.0 78 2.5 NE 4 9 2 5 1020.5 1017.7 0.0
23/12:30pm 20.0 21.2 16.0 78 2.5 NE 4 9 2 5 1020.5 1017.7 0.0
23/12:00pm 19.5 20.1 16.9 85 1.6 NE 9 13 5 7 1020.7 1018.0 0.0
23/11:30am 19.2 20.0 16.4 84 1.7 NNE 7 11 4 6 1020.8 1018.1 0.0
23/11:00am 19.2 20.3 17.0 87 1.4 W 7 9 4 5 1021.2 1018.5 0.0
23/10:30am 19.2 20.7 16.6 85 1.6 NW 4 9 2 5 1021.0 1018.3 0.0
23/10:29am 19.3 20.8 16.7 85 1.6 NW 4 9 2 5 1021.0 1018.3 0.0
23/10:00am 19.5 20.3 16.3 82 2.0 NNE 7 9 4 5 1020.5 1017.7 0.0
23/09:30am 19.6 21.2 17.0 85 1.6 ENE 4 9 2 5 1020.4 1017.6 0.0
23/09:00am 18.1 19.2 17.9 99 0.1 NNE 9 11 5 6 1020.4 1017.6 3.2
23/08:30am 17.3 19.1 17.3 100 0.0 NNW 4 11 2 6 1019.7 1017.0 3.2
23/08:00am 16.5 17.6 16.5 100 0.0 SW 6 9 3 5 1019.6 1016.9 3.2
23/07:30am 15.9 16.5 15.9 100 0.0 SSE 7 9 4 5 1019.2 1016.4 3.2
23/07:00am 16.0 16.9 16.0 100 0.0 ESE 6 7 3 4 1018.7 1016.0 3.0
23/06:30am 15.5 16.0 15.5 100 0.0 SW 7 11 4 6 1018.9 1016.1 3.0
23/06:00am 16.2 18.3 16.2 100 0.0 CALM 0 0 0 0 1018.7 1016.0 3.0
23/05:30am 16.6 17.1 16.6 100 0.0 ENE 9 13 5 7 1018.3 1015.6 3.0
23/05:00am 16.7 16.5 16.7 100 0.0 ENE 13 15 7 8 1018.1 1015.3 3.0
23/04:30am 16.8 18.0 16.8 100 0.0 E 6 9 3 5 1018.1 1015.3 3.0
23/04:00am 16.4 17.4 16.4 100 0.0 SW 6 9 3 5 1018.2 1015.4 3.0
23/03:30am 16.6 18.8 16.6 100 0.0 CALM 0 7 0 4 1017.9 1015.1 3.0
23/03:00am 17.2 19.7 17.2 100 0.0 CALM 0 6 0 3 1018.1 1015.3 3.0
23/02:30am 17.3 18.1 17.3 100 0.0 WSW 9 11 5 6 1018.5 1015.8 3.0
23/02:00am 17.6 18.0 17.3 98 0.2 NNE 11 20 6 11 1018.5 1015.8 3.0
23/01:30am 17.5 17.6 17.5 100 0.0 E 13 17 7 9 1018.1 1015.3 3.0
23/01:00am 17.2 16.4 17.2 100 0.0 E 17 20 9 11 1018.3 1015.6 3.0
23/12:30am 17.3 16.6 17.3 100 0.0 SE 17 20 9 11 1019.1 1016.3 3.0
23/12:00am 17.1 16.3 17.1 100 0.0 SSW 17 24 9 13 1019.5 1016.8 2.8
 
Date/Time
EDT
Temp
°C
App
Temp
°C
Dew
Point
°C
Rel
Hum
%
Delta-T
°C
Wind Press
QNH
hPa
Press
MSL
hPa
Rain since
9am
mm
Dir  Spd
km/h
Gust
km/h
Spd
kts
Gust
kts
22/11:30pm 17.2 18.5 17.2 100 0.0 N 6 11 3 6 1019.2 1016.4 2.8
22/11:00pm 16.6 18.1 16.6 100 0.0 ESE 4 9 2 5 1018.4 1015.7 2.8

Other Formats:

Comma delimited format used in spreadsheet applications
http://www.bom.gov.au/fwo/IDN60801/IDN60801.94729.axf

JavaScript Object Notation format (JSON) in row-major order
http://www.bom.gov.au/fwo/IDN60801/IDN60801.94729.json